Terminal Aerodrome Forecast
Issued by NWS

Current Version | Previous Version | Text Only | Print | Product List | Glossary Off
Versions: 1 2 3 4 5 6 7 8 9 10 11 12 13 14 15 16 17 18 19 20 21 22 23 24 25

401
FTUS44 KOHX 231010 AAC
TAFCKV
TAF AMD
KCKV 231010Z 2310/2406 20003KT 4SM BR SCT012 BKN035
      TEMPO 2310/2313 2SM BR OVC012
     FM231600 18008KT P6SM OVC015
     FM232100 18008KT P6SM OVC250=

USA.gov is the U.S. government's official web portal to all federal, state and local government web resources and services.